createdAt,value
2018-09-04T00:01:37.764Z,99921.41
2018-09-04T00:04:05.419Z,99922.39
2018-09-04T00:06:33.067Z,99925.91
2018-09-04T00:09:00.715Z,99919.84
2018-09-04T00:11:28.801Z,99915.78
2018-09-04T00:13:56.475Z,99921.16
2018-09-04T00:16:24.150Z,99917.09
2018-09-04T00:18:51.743Z,99916.42
2018-09-04T00:21:19.738Z,99925.98
2018-09-04T00:23:47.419Z,99918.59
2018-09-04T00:26:15.038Z,99918.59
2018-09-04T00:28:44.273Z,99917.58
2018-09-04T00:31:11.874Z,99922.80
2018-09-04T00:33:39.486Z,99922.13
2018-09-04T00:36:07.108Z,99916.27
2018-09-04T00:38:35.139Z,99923.18
2018-09-04T00:41:02.773Z,99922.84
2018-09-04T00:43:30.452Z,99925.72
2018-09-04T00:45:58.103Z,99924.22
2018-09-04T00:48:26.206Z,99926.58
2018-09-04T00:50:53.914Z,99922.88
2018-09-04T00:53:21.613Z,99929.27
2018-09-04T00:55:49.451Z,99925.27
2018-09-04T00:58:17.126Z,99921.41
2018-09-04T01:00:44.808Z,99929.66
2018-09-04T01:03:12.767Z,99922.97
2018-09-04T01:05:40.419Z,99916.08
2018-09-04T01:08:08.124Z,99916.27
2018-09-04T01:10:35.767Z,99912.04
2018-09-04T01:13:03.734Z,99907.03
2018-09-04T01:15:31.372Z,99915.25
2018-09-04T01:17:59.095Z,99923.69
2018-09-04T01:20:26.682Z,99922.68
2018-09-04T01:22:54.596Z,99917.63
2018-09-04T01:25:22.243Z,99922.34
2018-09-04T01:27:49.866Z,99919.98
2018-09-04T01:30:17.542Z,99921.17
2018-09-04T01:32:45.626Z,99920.34
2018-09-04T01:35:13.210Z,99910.77
2018-09-04T01:37:41.790Z,99906.88
2018-09-04T01:40:09.764Z,99907.91
2018-09-04T01:42:37.366Z,99911.27
2018-09-04T01:45:05.006Z,99913.28
2018-09-04T01:47:32.615Z,99913.98
2018-09-04T01:50:00.525Z,99910.28
2018-09-04T01:52:28.171Z,99912.27
2018-09-04T01:54:55.821Z,99914.82
2018-09-04T01:57:24.318Z,99912.28
2018-09-04T01:59:51.963Z,99906.56
2018-09-04T02:02:20.594Z,99903.69
2018-09-04T02:04:48.176Z,99904.18
2018-09-04T02:07:16.144Z,99910.91
2018-09-04T02:09:43.867Z,99906.05
2018-09-04T02:12:11.500Z,99903.36
2018-09-04T02:14:39.126Z,99907.55
2018-09-04T02:17:07.206Z,99904.68
2018-09-04T02:19:34.828Z,99900.50
2018-09-04T02:22:02.417Z,99904.69
2018-09-04T02:24:30.359Z,99903.01
2018-09-04T02:26:57.969Z,99903.66
2018-09-04T02:29:25.594Z,99899.95
2018-09-04T02:31:53.207Z,99901.79
2018-09-04T02:34:21.256Z,99906.50
2018-09-04T02:36:48.899Z,99905.50
2018-09-04T02:39:16.509Z,99901.44
2018-09-04T02:41:44.572Z,99898.75
2018-09-04T02:44:12.339Z,99903.77
2018-09-04T02:46:39.958Z,99899.37
2018-09-04T02:49:07.583Z,99899.86
2018-09-04T02:51:35.627Z,99902.03
2018-09-04T02:54:03.376Z,99895.98
2018-09-04T02:56:31.010Z,99895.09
2018-09-04T02:58:59.118Z,99896.59
2018-09-04T03:01:26.926Z,99894.91
2018-09-04T03:03:54.638Z,99896.55
2018-09-04T03:06:22.801Z,99892.63
2018-09-04T03:08:50.465Z,99894.13
2018-09-04T03:11:18.114Z,99899.83
2018-09-04T03:13:45.787Z,99894.05
2018-09-04T03:16:13.769Z,99891.51
2018-09-04T03:18:41.471Z,99890.30
2018-09-04T03:21:09.176Z,99883.70
2018-09-04T03:23:37.292Z,99887.20
2018-09-04T03:26:04.909Z,99885.33
2018-09-04T03:28:32.531Z,99888.83
2018-09-04T03:31:00.707Z,99890.16
2018-09-04T03:33:28.531Z,99889.83
2018-09-04T03:35:56.159Z,99885.12
2018-09-04T03:38:24.131Z,99885.41
2018-09-04T03:40:51.763Z,99888.77
2018-09-04T03:43:19.444Z,99888.09
2018-09-04T03:45:47.379Z,99877.49
2018-09-04T03:48:15.759Z,99879.98
2018-09-04T03:50:43.493Z,99882.81
2018-09-04T03:53:11.562Z,99878.97
2018-09-04T03:55:40.116Z,99882.80
2018-09-04T03:58:07.776Z,99877.24
2018-09-04T04:00:35.392Z,99881.59
2018-09-04T04:03:03.445Z,99884.91
2018-09-04T04:05:31.063Z,99894.48
2018-09-04T04:07:58.784Z,99891.09
2018-09-04T04:10:26.436Z,99895.78
2018-09-04T04:12:54.503Z,99899.13
2018-09-04T04:15:22.114Z,99895.59
2018-09-04T04:17:49.707Z,99892.56
2018-09-04T04:20:17.818Z,99893.23
2018-09-04T04:22:45.756Z,99898.59
2018-09-04T04:25:13.376Z,99898.06
2018-09-04T04:27:41.067Z,99889.81
2018-09-04T04:30:09.104Z,99896.84
2018-09-04T04:32:36.842Z,99892.77
2018-09-04T04:35:04.983Z,99891.23
2018-09-04T04:37:33.034Z,99897.27
2018-09-04T04:40:00.690Z,99898.41
2018-09-04T04:42:28.367Z,99894.90
2018-09-04T04:44:56.472Z,99906.66
2018-09-04T04:47:29.229Z,99900.97
2018-09-04T04:49:56.859Z,99913.23
2018-09-04T04:52:24.905Z,99915.64
2018-09-04T04:54:52.583Z,99915.46
2018-09-04T04:57:21.011Z,99916.66
2018-09-04T04:59:48.983Z,99914.31
2018-09-04T05:02:16.602Z,99916.52
2018-09-04T05:04:44.283Z,99920.73
2018-09-04T05:07:12.421Z,99926.45
2018-09-04T05:09:41.574Z,99927.79
2018-09-04T05:12:09.186Z,99928.12
2018-09-04T05:14:37.212Z,99918.39
2018-09-04T05:17:05.022Z,99927.98
2018-09-04T05:19:32.663Z,99920.09
2018-09-04T05:22:00.993Z,99929.20
2018-09-04T05:24:28.698Z,99935.58
2018-09-04T05:26:56.392Z,99937.73
2018-09-04T05:29:24.472Z,99946.66
2018-09-04T05:32:03.736Z,99943.62
2018-09-04T05:34:31.775Z,99945.31
2018-09-04T05:36:59.437Z,99938.94
2018-09-04T05:39:27.122Z,99942.30
2018-09-04T05:41:59.238Z,99935.64
2018-09-04T05:44:27.037Z,99937.33
2018-09-04T05:46:55.235Z,99927.27
2018-09-04T05:49:28.525Z,99928.31
2018-09-04T05:51:56.259Z,99931.36
2018-09-04T05:54:24.032Z,99932.42
2018-09-04T05:56:52.296Z,99933.47
2018-09-04T05:59:19.926Z,99935.16
2018-09-04T06:01:47.595Z,99939.92
2018-09-04T06:04:15.519Z,99939.30
2018-09-04T06:06:44.311Z,99937.48
2018-09-04T06:09:12.016Z,99939.69
2018-09-04T06:11:43.086Z,99938.88
2018-09-04T06:14:10.743Z,99949.83
2018-09-04T06:16:38.394Z,99952.59
2018-09-04T06:19:06.478Z,99951.66
2018-09-04T06:21:34.798Z,99952.20
2018-09-04T06:24:02.468Z,99954.92
2018-09-04T06:26:30.491Z,99956.94
2018-09-04T06:28:58.935Z,99964.53
2018-09-04T06:31:26.561Z,99956.13
2018-09-04T06:33:54.799Z,99960.53
2018-09-04T06:36:22.564Z,99958.55
2018-09-04T06:38:50.237Z,99961.95
2018-09-04T06:41:18.369Z,99954.89
2018-09-04T06:43:46.043Z,99959.93
2018-09-04T06:46:14.260Z,99959.44
2018-09-04T06:48:43.184Z,99961.16
2018-09-04T06:51:11.054Z,99959.47
2018-09-04T06:53:38.763Z,99960.66
2018-09-04T06:56:07.405Z,99963.02
2018-09-04T06:58:35.042Z,99972.47
2018-09-04T07:01:02.702Z,99971.69
2018-09-04T07:03:30.780Z,99977.14
2018-09-04T07:05:58.437Z,99970.95
2018-09-04T07:08:26.144Z,99961.86
2018-09-04T07:10:56.262Z,99958.17
2018-09-04T07:13:23.943Z,99961.53
2018-09-04T07:15:51.585Z,99964.89
2018-09-04T07:18:19.648Z,99963.72
2018-09-04T07:20:47.390Z,99948.73
2018-09-04T07:23:15.151Z,99950.42
2018-09-04T07:25:43.731Z,99962.21
2018-09-04T07:28:13.558Z,99960.37
2018-09-04T07:30:42.226Z,99962.21
2018-09-04T07:33:11.438Z,99963.40
2018-09-04T07:35:39.091Z,99960.83
2018-09-04T07:38:08.199Z,99967.56
2018-09-04T07:40:37.446Z,99975.63
2018-09-04T07:43:05.110Z,99971.03
2018-09-04T07:45:33.246Z,99971.83
2018-09-04T07:48:02.024Z,99975.18
2018-09-04T07:50:30.674Z,99971.45
2018-09-04T07:52:58.536Z,99978.17
2018-09-04T07:55:26.675Z,99979.69
2018-09-04T07:57:55.655Z,99977.67
2018-09-04T08:00:24.788Z,99978.81
2018-09-04T08:02:53.178Z,99975.91
2018-09-04T08:05:21.687Z,99970.08
2018-09-04T08:07:49.719Z,99974.56
2018-09-04T08:10:18.647Z,99969.92
2018-09-04T08:12:47.440Z,99969.31
2018-09-04T08:15:15.953Z,99967.56
2018-09-04T08:17:46.426Z,99970.70
2018-09-04T08:20:14.405Z,99972.96
2018-09-04T08:22:42.387Z,99970.71
2018-09-04T08:25:10.444Z,99971.98
2018-09-04T08:27:38.145Z,99972.08
2018-09-04T08:30:06.772Z,99970.00
2018-09-04T08:32:36.283Z,99962.03
2018-09-04T08:35:03.980Z,99973.50
2018-09-04T08:37:31.737Z,99976.86
2018-09-04T08:42:33.739Z,99984.56
2018-09-04T08:45:01.428Z,99986.06
2018-09-04T08:47:29.608Z,99982.48
2018-09-04T08:49:57.415Z,99979.53
2018-09-04T08:52:25.661Z,99985.06
2018-09-04T08:54:53.796Z,99980.41
2018-09-04T08:57:21.599Z,99983.70
2018-09-04T08:59:50.279Z,99980.19
2018-09-04T09:02:18.337Z,99980.37
2018-09-04T09:04:46.956Z,99974.27
2018-09-04T09:07:14.584Z,99968.63
2018-09-04T09:09:44.272Z,99968.61
2018-09-04T09:12:12.768Z,99961.20
2018-09-04T09:14:43.130Z,99964.21
2018-09-04T09:17:11.287Z,99958.11
2018-09-04T09:19:40.471Z,99953.06
2018-09-04T09:22:08.916Z,99951.89
2018-09-04T09:24:38.836Z,99950.09
2018-09-04T09:27:06.666Z,99948.47
2018-09-04T09:29:34.442Z,99951.79
2018-09-04T09:32:03.616Z,99949.59
2018-09-04T09:34:31.285Z,99945.61
2018-09-04T09:36:58.955Z,99944.67
2018-09-04T09:39:27.854Z,99947.95
2018-09-04T09:41:57.996Z,99947.16
2018-09-04T09:44:28.821Z,99946.34
2018-09-04T09:47:02.361Z,99944.84
2018-09-04T09:49:31.383Z,99945.94
2018-09-04T09:51:59.815Z,99945.33
2018-09-04T09:54:27.799Z,99942.46
2018-09-04T09:56:55.556Z,99945.18
2018-09-04T09:59:23.238Z,99948.22
2018-09-04T10:01:58.168Z,99946.28
2018-09-04T10:04:26.694Z,99943.03
2018-09-04T10:06:56.561Z,99937.57
2018-09-04T10:09:24.627Z,99936.92
2018-09-04T10:11:52.430Z,99938.24
2018-09-04T10:14:20.950Z,99937.30
2018-09-04T10:16:51.971Z,99936.53
2018-09-04T10:19:20.286Z,99932.91
2018-09-04T10:21:47.999Z,99933.34
2018-09-04T10:24:17.997Z,99925.44
2018-09-04T10:26:47.012Z,99923.28
2018-09-04T10:29:15.479Z,99921.52
2018-09-04T10:31:44.098Z,99923.79
2018-09-04T10:34:12.330Z,99918.85
2018-09-04T10:36:45.119Z,99912.56
2018-09-04T10:39:18.907Z,99919.69
2018-09-04T10:41:46.714Z,99923.55
2018-09-04T10:44:14.467Z,99918.41
2018-09-04T10:46:43.629Z,99916.94
2018-09-04T10:49:11.359Z,99917.87
2018-09-04T10:51:39.524Z,99911.89
2018-09-04T10:54:07.453Z,99910.30
2018-09-04T10:56:35.244Z,99913.41
2018-09-04T10:59:04.946Z,99910.58
2018-09-04T11:01:32.727Z,99916.75
2018-09-04T11:04:02.382Z,99911.02
2018-09-04T11:06:30.462Z,99905.40
2018-09-04T11:08:58.229Z,99908.88
2018-09-04T11:11:25.983Z,99914.20
2018-09-04T11:13:55.500Z,99893.49
2018-09-04T11:16:23.870Z,99890.82
2018-09-04T11:18:51.557Z,99893.09
2018-09-04T11:21:19.508Z,99890.04
2018-09-04T11:23:48.174Z,99892.52
2018-09-04T11:26:16.865Z,99885.56
2018-09-04T11:28:45.092Z,99884.72
2018-09-04T11:31:13.304Z,99878.33
2018-09-04T11:33:42.026Z,99886.30
2018-09-04T11:36:11.628Z,99881.09
2018-09-04T11:38:39.905Z,99883.23
2018-09-04T11:41:07.712Z,99876.70
2018-09-04T11:43:36.971Z,99869.10
2018-09-04T11:46:04.652Z,99873.39
2018-09-04T11:48:36.337Z,99875.46
2018-09-04T11:51:05.497Z,99874.45
2018-09-04T11:53:34.696Z,99880.23
2018-09-04T11:56:03.190Z,99879.63
2018-09-04T11:58:31.263Z,99879.68
2018-09-04T12:01:00.381Z,99881.81
2018-09-04T12:03:28.388Z,99878.87
2018-09-04T12:05:58.031Z,99879.06
2018-09-04T12:08:25.843Z,99880.31
2018-09-04T12:10:56.658Z,99885.69
2018-09-04T12:13:30.489Z,99882.72
2018-09-04T12:15:58.332Z,99877.88
2018-09-04T12:18:26.680Z,99878.47
2018-09-04T12:21:00.832Z,99877.00
2018-09-04T12:23:28.611Z,99875.09
2018-09-04T12:25:57.847Z,99872.50
2018-09-04T12:28:26.016Z,99873.68
2018-09-04T12:30:54.544Z,99874.03
2018-09-04T12:33:22.262Z,99876.59
2018-09-04T12:35:51.056Z,99876.59
2018-09-04T12:38:21.566Z,99867.75
2018-09-04T12:40:49.839Z,99865.63
2018-09-04T12:43:19.093Z,99860.34
2018-09-04T12:45:51.797Z,99866.36
2018-09-04T12:48:24.507Z,99860.07
2018-09-04T12:50:53.527Z,99869.61
2018-09-04T12:53:21.578Z,99872.30
2018-09-04T12:55:49.344Z,99868.86
2018-09-04T12:58:17.860Z,99871.69
2018-09-04T13:00:47.641Z,99874.00
2018-09-04T13:03:16.619Z,99874.55
2018-09-04T13:05:44.651Z,99871.28
2018-09-04T13:08:12.815Z,99877.20
2018-09-04T13:13:21.279Z,99873.31
2018-09-04T13:15:53.115Z,99869.44
2018-09-04T13:18:22.177Z,99873.33
2018-09-04T13:20:51.766Z,99871.41
2018-09-04T13:23:20.232Z,99873.90
2018-09-04T13:25:50.039Z,99877.47
2018-09-04T13:28:18.365Z,99870.78
2018-09-04T13:30:46.086Z,99869.31
2018-09-04T13:33:14.172Z,99863.30
2018-09-04T13:35:42.665Z,99863.43
2018-09-04T13:38:10.287Z,99857.41
2018-09-04T13:40:39.732Z,99854.81
2018-09-04T13:43:07.431Z,99857.03
2018-09-04T13:45:35.524Z,99848.73
2018-09-04T13:48:03.929Z,99851.59
2018-09-04T13:50:31.637Z,99851.63
2018-09-04T13:53:00.530Z,99850.55
2018-09-04T13:55:28.588Z,99843.09
2018-09-04T13:57:57.371Z,99845.31
2018-09-04T14:00:26.727Z,99843.20
2018-09-04T14:02:54.787Z,99848.23
2018-09-04T14:05:28.109Z,99847.96
2018-09-04T14:07:56.748Z,99851.17
2018-09-04T14:10:24.868Z,99854.42
2018-09-04T14:12:55.540Z,99854.70
2018-09-04T14:15:23.243Z,99856.36
2018-09-04T14:17:54.222Z,99856.64
2018-09-04T14:20:22.303Z,99847.19
2018-09-04T14:22:50.004Z,99848.91
2018-09-04T14:25:18.645Z,99846.72
2018-09-04T14:27:50.173Z,99849.58
2018-09-04T14:30:17.843Z,99859.90
2018-09-04T14:32:46.209Z,99858.95
2018-09-04T14:35:13.828Z,99863.66
2018-09-04T14:37:41.445Z,99865.39
2018-09-04T14:40:09.527Z,99865.05
2018-09-04T14:42:37.197Z,99874.73
2018-09-04T14:45:04.869Z,99876.77
2018-09-04T14:47:34.143Z,99878.02
2018-09-04T14:50:03.494Z,99885.08
2018-09-04T14:52:45.328Z,99885.99
2018-09-04T14:55:14.497Z,99888.20
2018-09-04T14:57:42.127Z,99886.02
2018-09-04T15:00:09.752Z,99889.56
2018-09-04T15:02:38.924Z,99891.47
2018-09-04T15:05:07.119Z,99890.40
2018-09-04T15:07:35.434Z,99882.89
2018-09-04T15:10:03.474Z,99892.00
2018-09-04T15:12:31.208Z,99888.21
2018-09-04T15:14:59.804Z,99887.42
2018-09-04T15:17:29.370Z,99889.52
2018-09-04T15:19:56.993Z,99885.50
2018-09-04T15:22:24.662Z,99881.91
2018-09-04T15:24:53.656Z,99880.77
2018-09-04T15:27:23.562Z,99881.46
2018-09-04T15:29:51.367Z,99881.19
2018-09-04T15:32:19.479Z,99885.89
2018-09-04T15:34:47.387Z,99893.82
2018-09-04T15:37:15.803Z,99893.38
2018-09-04T15:39:43.791Z,99895.64
2018-09-04T15:42:11.395Z,99896.38
2018-09-04T15:44:39.900Z,99892.13
2018-09-04T15:47:07.896Z,99886.48
2018-09-04T15:49:40.591Z,99899.52
2018-09-04T15:52:09.565Z,99897.59
2018-09-04T15:54:37.557Z,99902.86
2018-09-04T15:57:05.182Z,99899.23
2018-09-04T15:59:32.854Z,99893.33
2018-09-04T16:02:01.705Z,99890.95
2018-09-04T16:04:29.332Z,99891.01
2018-09-04T16:06:58.308Z,99896.60
2018-09-04T16:09:26.645Z,99893.20
2018-09-04T16:11:54.768Z,99894.56
2018-09-04T16:14:23.698Z,99903.27
2018-09-04T16:16:53.431Z,99901.37
2018-09-04T16:19:24.719Z,99903.48
2018-09-04T16:21:54.245Z,99905.48
2018-09-04T16:24:23.690Z,99906.23
2018-09-04T16:26:53.022Z,99896.28
2018-09-04T16:29:20.722Z,99905.41
2018-09-04T16:31:50.549Z,99905.92
2018-09-04T16:34:19.041Z,99911.67
2018-09-04T16:36:46.751Z,99913.78
2018-09-04T16:39:15.576Z,99919.63
2018-09-04T16:41:45.211Z,99911.77
2018-09-04T16:44:13.073Z,99922.68
2018-09-04T16:46:41.119Z,99928.14
2018-09-04T16:49:09.437Z,99939.33
2018-09-04T16:51:37.905Z,99934.95
2018-09-04T16:54:09.525Z,99932.75
2018-09-04T16:56:37.163Z,99940.69
2018-09-04T16:59:06.059Z,99935.05
2018-09-04T17:01:34.971Z,99943.31
2018-09-04T17:04:02.585Z,99948.02
2018-09-04T17:06:34.279Z,99952.41
2018-09-04T17:09:02.234Z,99949.66
2018-09-04T17:11:31.477Z,99945.86
2018-09-04T17:14:06.307Z,99950.45
2018-09-04T17:16:34.894Z,99965.09
2018-09-04T17:19:15.200Z,99974.57
2018-09-04T17:21:46.066Z,99972.70
2018-09-04T17:24:13.682Z,99976.00
2018-09-04T17:26:42.570Z,99979.33
2018-09-04T17:29:10.639Z,99975.98
2018-09-04T17:31:38.396Z,99969.13
2018-09-04T17:34:07.759Z,99962.83
2018-09-04T17:36:36.881Z,99958.41
2018-09-04T17:39:06.517Z,99952.80
2018-09-04T17:41:34.828Z,99950.89
2018-09-04T17:44:05.550Z,99952.92
2018-09-04T17:46:34.485Z,99957.79
2018-09-04T17:49:02.278Z,99961.65
2018-09-04T17:51:32.898Z,99957.01
2018-09-04T17:54:00.633Z,99960.14
2018-09-04T17:56:28.347Z,99959.38
2018-09-04T17:58:56.379Z,99959.94
2018-09-04T18:01:25.570Z,99956.16
2018-09-04T18:03:53.620Z,99958.96
2018-09-04T18:06:22.366Z,99957.47
2018-09-04T18:08:52.382Z,99956.30
2018-09-04T18:11:20.915Z,99960.79
2018-09-04T18:13:49.470Z,99955.23
2018-09-04T18:16:17.123Z,99954.59
2018-09-04T18:18:44.802Z,99958.38
2018-09-04T18:21:13.886Z,99963.36
2018-09-04T18:23:42.148Z,99955.81
2018-09-04T18:26:09.793Z,99963.00
2018-09-04T18:28:37.809Z,99962.02
2018-09-04T18:31:05.418Z,99966.17
2018-09-04T18:33:35.158Z,99962.47
2018-09-04T18:36:04.278Z,99967.45
2018-09-04T18:38:32.087Z,99976.17
2018-09-04T18:40:59.731Z,99975.73
2018-09-04T18:43:27.364Z,99974.23
2018-09-04T18:45:58.488Z,99982.45
2018-09-04T18:48:26.949Z,99977.62
2018-09-04T18:50:54.637Z,99979.88
2018-09-04T18:53:22.257Z,99984.84
2018-09-04T18:55:50.270Z,99981.36
2018-09-04T18:58:19.135Z,99986.83
2018-09-04T19:00:47.851Z,99988.27
2018-09-04T19:03:15.890Z,99989.16
2018-09-04T19:05:43.647Z,99987.03
2018-09-04T19:08:12.316Z,99987.08
2018-09-04T19:10:40.420Z,99987.94
2018-09-04T19:13:08.523Z,99996.97
2018-09-04T19:15:36.220Z,99991.94
2018-09-04T19:18:04.817Z,99990.45
2018-09-04T19:20:32.615Z,99993.34
2018-09-04T19:23:00.912Z,99998.30
2018-09-04T19:25:28.987Z,99998.69
2018-09-04T19:27:57.334Z,100006.36
2018-09-04T19:30:25.017Z,100010.78
2018-09-04T19:32:54.253Z,100015.73
2018-09-04T19:35:21.894Z,100013.27
2018-09-04T19:37:49.571Z,100010.81
2018-09-04T19:40:17.598Z,100010.20
2018-09-04T19:42:45.311Z,100009.09
2018-09-04T19:45:13.764Z,100011.51
2018-09-04T19:47:44.440Z,100006.86
2018-09-04T19:50:12.723Z,100009.61
2018-09-04T19:52:40.628Z,100014.38
2018-09-04T19:55:08.750Z,100007.95
2018-09-04T19:57:36.436Z,100010.02
2018-09-04T20:00:04.064Z,100020.91
2018-09-04T20:02:32.210Z,100018.52
2018-09-04T20:05:06.746Z,100018.23
2018-09-04T20:07:34.384Z,100021.81
2018-09-04T20:10:02.518Z,100017.98
2018-09-04T20:12:30.182Z,100016.70
2018-09-04T20:14:57.882Z,100020.43
2018-09-04T20:17:26.625Z,100012.98
2018-09-04T20:19:54.303Z,100015.36
2018-09-04T20:22:21.958Z,100013.36
2018-09-04T20:24:50.050Z,100018.45
2018-09-04T20:27:17.728Z,100022.84
2018-09-04T20:29:45.584Z,100016.24
2018-09-04T20:32:13.515Z,100020.16
2018-09-04T20:34:41.104Z,100026.59
2018-09-04T20:37:09.408Z,100023.23
2018-09-04T20:39:37.334Z,100023.94
2018-09-04T20:42:04.967Z,100029.70
2018-09-04T20:44:32.638Z,100028.73
2018-09-04T20:47:00.767Z,100031.11
2018-09-04T20:49:28.385Z,100037.39
2018-09-04T20:51:57.523Z,100033.51
2018-09-04T20:54:26.310Z,100037.24
2018-09-04T20:56:54.982Z,100033.56
2018-09-04T20:59:23.189Z,100036.61
2018-09-04T21:01:52.257Z,100037.31
2018-09-04T21:04:20.521Z,100035.63
2018-09-04T21:06:51.309Z,100040.87
2018-09-04T21:09:24.350Z,100036.66
2018-09-04T21:11:51.983Z,100040.03
2018-09-04T21:14:19.721Z,100039.38
2018-09-04T21:16:48.656Z,100037.70
2018-09-04T21:19:16.311Z,100036.35
2018-09-04T21:21:47.116Z,100032.79
2018-09-04T21:24:16.267Z,100036.67
2018-09-04T21:26:43.926Z,100043.11
2018-09-04T21:29:11.664Z,100038.20
2018-09-04T21:31:39.743Z,100045.81
2018-09-04T21:34:07.375Z,100042.46
2018-09-04T21:36:36.633Z,100047.67
2018-09-04T21:39:06.344Z,100045.49
2018-09-04T21:41:36.014Z,100042.78
2018-09-04T21:44:03.712Z,100043.81
2018-09-04T21:46:31.753Z,100047.02
2018-09-04T21:48:59.743Z,100045.83
2018-09-04T21:51:27.390Z,100041.28
2018-09-04T21:53:55.581Z,100048.21
2018-09-04T21:56:24.000Z,100043.17
2018-09-04T21:58:51.661Z,100046.58
2018-09-04T22:01:20.894Z,100040.48
2018-09-04T22:03:50.074Z,100049.63
2018-09-04T22:06:18.717Z,100041.72
2018-09-04T22:08:47.333Z,100043.23
2018-09-04T22:11:15.014Z,100041.88
2018-09-04T22:13:42.951Z,100043.94
2018-09-04T22:16:12.205Z,100044.89
2018-09-04T22:18:40.675Z,100034.78
2018-09-04T22:21:09.352Z,100042.23
2018-09-04T22:23:38.508Z,100038.88
2018-09-04T22:26:06.484Z,100040.89
2018-09-04T22:28:35.365Z,100043.27
2018-09-04T22:31:03.401Z,100042.95
2018-09-04T22:33:31.076Z,100046.67
2018-09-04T22:35:58.689Z,100045.69
2018-09-04T22:38:26.818Z,100040.45
2018-09-04T22:40:55.413Z,100042.83
2018-09-04T22:43:23.088Z,100032.52
2018-09-04T22:45:50.700Z,100034.56
2018-09-04T22:48:18.756Z,100037.27
2018-09-04T22:50:53.522Z,100033.21
2018-09-04T22:53:21.251Z,100029.00
2018-09-04T22:55:49.184Z,100028.50
2018-09-04T22:58:16.945Z,100027.65
2018-09-04T23:00:44.605Z,100034.08
2018-09-04T23:03:12.672Z,100033.58
2018-09-04T23:05:42.044Z,100025.64
2018-09-04T23:08:10.195Z,100028.17
2018-09-04T23:10:39.147Z,100031.70
2018-09-04T23:13:06.794Z,100026.13
2018-09-04T23:15:38.460Z,100030.19
2018-09-04T23:18:06.587Z,100029.86
2018-09-04T23:20:35.221Z,100030.68
2018-09-04T23:23:02.858Z,100027.65
2018-09-04T23:25:31.563Z,100027.16
2018-09-04T23:27:59.247Z,100028.55
2018-09-04T23:30:27.674Z,100024.67
2018-09-04T23:32:55.296Z,100019.11
2018-09-04T23:35:22.936Z,100015.09
2018-09-04T23:37:50.622Z,100023.20
2018-09-04T23:40:18.802Z,100021.16
2018-09-04T23:42:46.430Z,100016.45
2018-09-04T23:45:14.835Z,100021.00
2018-09-04T23:47:46.563Z,100012.56
2018-09-04T23:50:14.190Z,100020.50
2018-09-04T23:52:42.126Z,100016.09
2018-09-04T23:55:10.267Z,100010.88
2018-09-04T23:57:38.074Z,100013.91
